Главная страница
METAR-TAF:

METAR-TAF

Аэропорты :

Dansville Municipal Airport

Dansville, Нью-Йорк, США

широта: 42-34-10N, долгота: 077-42-52W, высота над уровнем моря: 201 м

Текущие метеонаблюдения

Эта сводка был подготовлена 23 минут назад, в 22:14 UTC
Штиль
Температура 1°C
Влажность 93%
Давление 1022 hPa
Видимость: 6.4 км
Рассеянная облачность на высоте 1000 фута
Сплошная облачность на высоте 2400 фута
небольшой снег, дымка

METAR: KDSV 182214Z AUTO 00000KT 4SM -SN BR BKN010 OVC024 01/00 A3017 RMK AO2 P0000 T00060000

Время: 17:37 (22:37 UTC)


TAF: отсутствует

Метеонаблюдения и прогнозы для более 4000 аэропортов (сводки METAR и TAF).

Имеющиеся станции представлены на карте желтыми и красными точками.

Чтобы увидеть название станции, наведите на нее мышь.

Затем щелкните, чтобы увидеть метеонаблюдения и метеопрогнозы.

Управление картой: чтобы увеличить масштаб, щелкните зеленые кнопки с черным крестиком; чтобы уменьшить масштаб, щелкните зеленую кнопку с тире; для просмотра соседних карт щелкайте зеленые стрелки.


METAR-TAF: